createdAt,value
2022-08-22T00:00:18.574Z,100213.06
2022-08-22T00:02:53.685Z,100161.85
2022-08-22T00:03:07.734Z,100195.25
2022-08-22T00:03:23.959Z,100220.56
2022-08-22T00:06:11.876Z,100217.41
2022-08-22T00:09:05.919Z,100212.02
2022-08-22T00:12:16.612Z,100201.23
2022-08-22T00:15:07.185Z,100214.22
2022-08-22T00:18:19.610Z,100204.54
2022-08-22T00:21:27.146Z,100207.10
2022-08-22T00:24:41.492Z,100203.59
2022-08-22T00:27:23.827Z,100209.69
2022-08-22T00:30:07.651Z,100196.23
2022-08-22T00:32:45.501Z,100200.50
2022-08-22T00:35:26.297Z,100204.63
2022-08-22T00:38:22.633Z,100202.45
2022-08-22T00:41:25.162Z,100207.50
2022-08-22T00:44:35.791Z,100211.38
2022-08-22T00:47:35.804Z,100193.03
2022-08-22T00:50:18.500Z,100197.05
2022-08-22T00:53:22.154Z,100199.91
2022-08-22T00:56:35.029Z,100199.16
2022-08-22T00:59:53.108Z,100203.42
2022-08-22T01:02:59.450Z,100195.34
2022-08-22T01:06:01.992Z,100222.33
2022-08-22T01:08:50.172Z,100213.55
2022-08-22T01:11:50.383Z,100206.60
2022-08-22T01:14:49.399Z,100212.23
2022-08-22T01:17:55.633Z,100218.48
2022-08-22T01:20:57.360Z,100223.92
2022-08-22T01:24:28.299Z,100221.55
2022-08-22T01:27:30.163Z,100224.27
2022-08-22T01:30:40.685Z,100225.98
2022-08-22T01:33:29.654Z,100228.50
2022-08-22T01:36:52.355Z,100226.09
2022-08-22T01:39:40.506Z,100204.17
2022-08-22T01:42:45.922Z,100223.22
2022-08-22T01:45:47.113Z,100216.35
2022-08-22T01:48:53.377Z,100226.39
2022-08-22T01:51:43.723Z,100220.79
2022-08-22T01:54:33.813Z,100231.55
2022-08-22T01:57:15.094Z,100235.33
2022-08-22T02:00:01.404Z,100233.01
2022-08-22T02:02:44.786Z,100239.91
2022-08-22T02:05:46.935Z,100238.95
2022-08-22T02:08:59.150Z,100241.62
2022-08-22T02:12:13.839Z,100238.60
2022-08-22T02:15:40.629Z,100221.38
2022-08-22T02:18:12.913Z,100233.49
2022-08-22T02:21:16.710Z,100228.11
2022-08-22T02:24:14.576Z,100224.02
2022-08-22T02:27:32.023Z,100233.88
2022-08-22T02:30:51.518Z,100236.54
2022-08-22T02:33:38.599Z,100231.61
2022-08-22T02:36:54.969Z,100233.73
2022-08-22T02:39:45.455Z,100231.11
2022-08-22T02:42:26.169Z,100242.43
2022-08-22T02:45:22.025Z,100245.82
2022-08-22T02:48:19.205Z,100229.69
2022-08-22T02:51:08.252Z,100237.16
2022-08-22T02:54:09.052Z,100224.56
2022-08-22T02:57:26.467Z,100239.50
2022-08-22T03:00:32.351Z,100240.83
2022-08-22T03:03:22.811Z,100245.13
2022-08-22T03:06:09.067Z,100233.16
2022-08-22T03:09:19.039Z,100240.35
2022-08-22T03:12:00.020Z,100250.25
2022-08-22T03:14:59.079Z,100245.98
2022-08-22T03:17:47.189Z,100255.08
2022-08-22T03:20:38.623Z,100255.73
2022-08-22T03:23:25.386Z,100259.52
2022-08-22T03:26:19.664Z,100262.86
2022-08-22T03:29:00.172Z,100256.77
2022-08-22T03:31:32.059Z,100258.49
2022-08-22T03:34:29.344Z,100256.33
2022-08-22T03:37:19.050Z,100250.86
2022-08-22T03:40:06.742Z,100249.66
2022-08-22T03:43:21.333Z,100257.52
2022-08-22T03:46:20.402Z,100261.64
2022-08-22T03:49:32.251Z,100267.86
2022-08-22T03:53:02.646Z,100267.58
2022-08-22T03:56:11.842Z,100268.27
2022-08-22T03:59:35.464Z,100278.10
2022-08-22T04:02:48.347Z,100278.20
2022-08-22T04:05:44.748Z,100269.52
2022-08-22T04:09:14.823Z,100275.22
2022-08-22T04:12:15.671Z,100285.97
2022-08-22T04:15:48.721Z,100290.52
2022-08-22T04:18:38.513Z,100282.41
2022-08-22T04:21:42.786Z,100292.98
2022-08-22T04:24:23.981Z,100294.15
2022-08-22T04:27:26.405Z,100294.46
2022-08-22T04:30:35.788Z,100288.00
2022-08-22T04:33:32.225Z,100290.56
2022-08-22T04:36:13.176Z,100279.46
2022-08-22T04:39:23.051Z,100286.81
2022-08-22T04:42:35.354Z,100282.05
2022-08-22T04:45:10.712Z,100286.21
2022-08-22T04:48:27.870Z,100274.94
2022-08-22T04:51:08.470Z,100276.20
2022-08-22T04:53:49.497Z,100288.77
2022-08-22T04:57:00.113Z,100293.59
2022-08-22T04:59:30.756Z,100295.06
2022-08-22T05:02:08.267Z,100297.60
2022-08-22T05:04:49.720Z,100298.07
2022-08-22T05:07:36.225Z,100292.27
2022-08-22T05:10:34.194Z,100284.20
2022-08-22T05:13:52.210Z,100293.51
2022-08-22T05:16:52.188Z,100286.48
2022-08-22T05:19:32.056Z,100300.09
2022-08-22T05:22:06.870Z,100304.14
2022-08-22T05:25:17.647Z,100307.16
2022-08-22T05:28:34.855Z,100309.70
2022-08-22T05:31:15.996Z,100312.89
2022-08-22T05:34:08.208Z,100315.39
2022-08-22T05:37:13.212Z,100314.52
2022-08-22T05:39:47.879Z,100312.77
2022-08-22T05:42:52.060Z,100314.25
2022-08-22T05:45:26.379Z,100300.88
2022-08-22T05:48:23.122Z,100307.33
2022-08-22T05:51:10.771Z,100305.64
2022-08-22T05:53:48.083Z,100311.36
2022-08-22T05:56:37.883Z,100312.77
2022-08-22T05:59:34.558Z,100313.63
2022-08-22T06:02:48.279Z,100318.50
2022-08-22T06:05:27.541Z,100314.79
2022-08-22T06:08:33.564Z,100316.38
2022-08-22T06:11:32.704Z,100312.65
2022-08-22T06:14:28.011Z,100311.16
2022-08-22T06:17:36.013Z,100313.77
2022-08-22T06:20:09.826Z,100311.92
2022-08-22T06:23:10.765Z,100312.97
2022-08-22T06:25:44.241Z,100309.56
2022-08-22T06:28:24.992Z,100316.59
2022-08-22T06:31:04.246Z,100309.09
2022-08-22T06:34:06.403Z,100310.64
2022-08-22T06:36:49.178Z,100326.00
2022-08-22T06:39:31.526Z,100312.05
2022-08-22T06:42:27.022Z,100317.02
2022-08-22T06:45:35.223Z,100329.88
2022-08-22T06:48:10.913Z,100333.91
2022-08-22T06:50:55.700Z,100308.08
2022-08-22T06:53:50.664Z,100330.65
2022-08-22T06:56:45.300Z,100330.64
2022-08-22T06:59:47.801Z,100332.85
2022-08-22T07:02:50.966Z,100333.84
2022-08-22T07:05:43.752Z,100318.25
2022-08-22T07:08:23.861Z,100330.66
2022-08-22T07:11:25.939Z,100327.96
2022-08-22T07:14:19.445Z,100324.87
2022-08-22T07:17:01.453Z,100317.48
2022-08-22T07:19:36.784Z,100318.05
2022-08-22T07:22:30.477Z,100330.20
2022-08-22T07:25:16.360Z,100331.97
2022-08-22T07:28:17.860Z,100320.98
2022-08-22T07:31:37.010Z,100323.30
2022-08-22T07:34:47.858Z,100325.27
2022-08-22T07:37:24.742Z,100325.31
2022-08-22T07:40:35.759Z,100322.50
2022-08-22T07:43:25.220Z,100322.67
2022-08-22T07:46:01.964Z,100323.20
2022-08-22T07:49:05.930Z,100312.73
2022-08-22T07:51:45.553Z,100326.45
2022-08-22T07:54:27.526Z,100327.17
2022-08-22T07:57:13.206Z,100314.36
2022-08-22T07:59:55.003Z,100324.63
2022-08-22T08:02:25.052Z,100323.76
2022-08-22T08:04:56.677Z,100312.92
2022-08-22T08:07:31.913Z,100322.98
2022-08-22T08:10:12.386Z,100317.23
2022-08-22T08:12:54.169Z,100318.00
2022-08-22T08:15:37.442Z,100318.89
2022-08-22T08:18:13.291Z,100314.45
2022-08-22T08:20:42.503Z,100307.63
2022-08-22T08:23:19.383Z,100299.69
2022-08-22T08:26:18.973Z,100305.98
2022-08-22T08:28:55.717Z,100297.07
2022-08-22T08:31:44.904Z,100307.48
2022-08-22T08:34:26.808Z,100307.48
2022-08-22T08:37:05.451Z,100297.04
2022-08-22T08:39:50.008Z,100288.65
2022-08-22T08:42:55.573Z,100302.34
2022-08-22T08:45:43.401Z,100302.28
2022-08-22T08:49:06.888Z,100305.09
2022-08-22T08:52:08.011Z,100303.64
2022-08-22T08:55:32.473Z,100301.58
2022-08-22T08:58:19.356Z,100290.90
2022-08-22T09:01:16.345Z,100289.15
2022-08-22T09:04:18.157Z,100286.88
2022-08-22T09:07:24.871Z,100279.70
2022-08-22T09:10:29.499Z,100279.80
2022-08-22T09:13:24.564Z,100281.77
2022-08-22T09:16:19.246Z,100276.50
2022-08-22T09:19:20.121Z,100271.59
2022-08-22T09:22:14.474Z,100263.35
2022-08-22T09:25:44.176Z,100260.66
2022-08-22T09:28:28.234Z,100260.15
2022-08-22T09:31:02.137Z,100264.30
2022-08-22T09:33:55.526Z,100261.72
2022-08-22T09:36:57.776Z,100255.84
2022-08-22T09:39:30.761Z,100247.50
2022-08-22T09:42:14.908Z,100241.71
2022-08-22T09:45:11.190Z,100239.01
2022-08-22T09:48:00.305Z,100232.35
2022-08-22T09:51:01.641Z,100229.92
2022-08-22T09:53:45.326Z,100229.91
2022-08-22T09:56:36.005Z,100220.14
2022-08-22T09:59:13.419Z,100217.68
2022-08-22T10:02:03.187Z,100222.10
2022-08-22T10:04:45.433Z,100225.11
2022-08-22T10:08:26.366Z,100224.21
2022-08-22T10:11:32.186Z,100221.25
2022-08-22T10:14:33.419Z,100228.71
2022-08-22T10:17:31.891Z,100232.09
2022-08-22T10:20:36.510Z,100230.83
2022-08-22T10:23:31.698Z,100235.10
2022-08-22T10:26:22.833Z,100241.17
2022-08-22T10:29:04.876Z,100246.08
2022-08-22T10:31:59.782Z,100242.67
2022-08-22T10:34:35.979Z,100237.96
2022-08-22T10:38:00.297Z,100226.06
2022-08-22T10:40:49.623Z,100219.23
2022-08-22T10:43:41.869Z,100212.98
2022-08-22T10:46:31.468Z,100211.96
2022-08-22T10:49:08.276Z,100206.80
2022-08-22T10:51:56.894Z,100203.98
2022-08-22T10:54:56.053Z,100207.41
2022-08-22T10:57:31.922Z,100211.45
2022-08-22T11:00:37.215Z,100207.83
2022-08-22T11:03:52.656Z,100203.27
2022-08-22T11:07:15.118Z,100204.85
2022-08-22T11:09:43.490Z,100206.83
2022-08-22T11:12:35.076Z,100209.98
2022-08-22T11:15:58.353Z,100211.90
2022-08-22T11:18:37.698Z,100219.40
2022-08-22T11:21:34.595Z,100221.70
2022-08-22T11:24:35.549Z,100219.98
2022-08-22T11:27:17.684Z,100219.23
2022-08-22T11:30:10.275Z,100221.98
2022-08-22T11:33:09.744Z,100218.23
2022-08-22T11:35:44.059Z,100213.30
2022-08-22T11:39:10.016Z,100208.45
2022-08-22T11:42:11.773Z,100204.71
2022-08-22T11:44:50.387Z,100206.67
2022-08-22T11:47:26.771Z,100211.93
2022-08-22T11:49:57.007Z,100218.58
2022-08-22T11:52:54.198Z,100222.36
2022-08-22T11:55:48.187Z,100223.73
2022-08-22T11:58:54.197Z,100205.16
2022-08-22T12:01:56.286Z,100193.89
2022-08-22T12:04:57.102Z,100192.25
2022-08-22T12:07:32.729Z,100192.65
2022-08-22T12:10:17.513Z,100191.52
2022-08-22T12:12:44.479Z,100189.29
2022-08-22T12:15:18.518Z,100187.36
2022-08-22T12:18:30.631Z,100185.83
2022-08-22T12:21:21.719Z,100182.38
2022-08-22T12:24:20.842Z,100180.55
2022-08-22T12:27:06.475Z,100182.67
2022-08-22T12:30:01.584Z,100180.56
2022-08-22T12:32:49.722Z,100176.46
2022-08-22T12:36:04.918Z,100173.81
2022-08-22T12:38:50.246Z,100167.88
2022-08-22T12:41:48.279Z,100175.28
2022-08-22T12:44:30.224Z,100169.30
2022-08-22T12:47:09.631Z,100164.25
2022-08-22T12:50:18.844Z,100164.11
2022-08-22T12:53:24.318Z,100163.09
2022-08-22T12:56:26.842Z,100155.41
2022-08-22T12:59:19.050Z,100149.16
2022-08-22T13:01:51.663Z,100145.23
2022-08-22T13:04:33.116Z,100144.13
2022-08-22T13:07:19.771Z,100148.05
2022-08-22T13:10:26.122Z,100152.56
2022-08-22T13:12:57.183Z,100155.34
2022-08-22T13:15:35.985Z,100156.55
2022-08-22T13:18:29.534Z,100157.33
2022-08-22T13:21:02.339Z,100156.98
2022-08-22T13:23:39.760Z,100161.46
2022-08-22T13:26:31.796Z,100160.91
2022-08-22T13:29:26.746Z,100163.77
2022-08-22T13:32:01.180Z,100162.73
2022-08-22T13:34:50.652Z,100157.41
2022-08-22T13:37:35.402Z,100155.80
2022-08-22T13:40:09.718Z,100155.82
2022-08-22T13:42:47.795Z,100159.42
2022-08-22T13:45:26.384Z,100159.16
2022-08-22T13:48:11.599Z,100163.86
2022-08-22T13:51:12.460Z,100169.33
2022-08-22T13:53:50.002Z,100181.90
2022-08-22T13:56:56.940Z,100187.75
2022-08-22T13:59:50.100Z,100194.45
2022-08-22T14:03:05.729Z,100199.60
2022-08-22T14:05:56.030Z,100201.83
2022-08-22T14:08:36.214Z,100200.05
2022-08-22T14:11:27.203Z,100198.72
2022-08-22T14:14:03.163Z,100195.08
2022-08-22T14:16:55.949Z,100194.64
2022-08-22T14:19:53.159Z,100189.57
2022-08-22T14:22:32.099Z,100189.20
2022-08-22T14:25:26.744Z,100187.73
2022-08-22T14:28:10.968Z,100184.15
2022-08-22T14:31:00.867Z,100185.82
2022-08-22T14:33:46.118Z,100185.63
2022-08-22T14:36:22.812Z,100186.09
2022-08-22T14:39:30.547Z,100190.54
2022-08-22T14:42:22.993Z,100190.50
2022-08-22T14:45:25.469Z,100191.55
2022-08-22T14:48:30.142Z,100194.41
2022-08-22T14:51:17.035Z,100190.30
2022-08-22T14:53:44.373Z,100187.33
2022-08-22T14:56:18.181Z,100184.64
2022-08-22T14:59:08.781Z,100183.86
2022-08-22T15:02:05.555Z,100184.29
2022-08-22T15:04:44.934Z,100183.71
2022-08-22T15:07:23.312Z,100183.23
2022-08-22T15:10:22.271Z,100187.89
2022-08-22T15:12:55.452Z,100189.83
2022-08-22T15:15:49.816Z,100193.14
2022-08-22T15:18:29.905Z,100196.08
2022-08-22T15:21:08.577Z,100195.44
2022-08-22T15:23:45.375Z,100193.73
2022-08-22T15:26:36.104Z,100194.86
2022-08-22T15:29:31.220Z,100193.13
2022-08-22T15:32:01.782Z,100187.85
2022-08-22T15:34:43.842Z,100184.89
2022-08-22T15:37:20.169Z,100182.96
2022-08-22T15:40:19.832Z,100183.21
2022-08-22T15:42:54.034Z,100183.23
2022-08-22T15:45:36.770Z,100179.09
2022-08-22T15:48:24.700Z,100176.09
2022-08-22T15:51:09.737Z,100178.46
2022-08-22T15:53:43.114Z,100180.79
2022-08-22T15:56:19.870Z,100183.55
2022-08-22T15:59:23.178Z,100186.73
2022-08-22T16:01:58.466Z,100183.90
2022-08-22T16:04:46.907Z,100189.23
2022-08-22T16:07:45.499Z,100196.48
2022-08-22T16:10:21.679Z,100197.06
2022-08-22T16:13:16.289Z,100201.70
2022-08-22T16:15:54.337Z,100210.83
2022-08-22T16:18:50.713Z,100216.39
2022-08-22T16:21:20.855Z,100223.48
2022-08-22T16:23:51.133Z,100223.78
2022-08-22T16:26:43.716Z,100226.02
2022-08-22T16:29:14.693Z,100224.63
2022-08-22T16:31:44.589Z,100227.34
2022-08-22T16:34:43.483Z,100228.14
2022-08-22T16:37:24.376Z,100228.42
2022-08-22T16:40:00.517Z,100223.16
2022-08-22T16:42:42.415Z,100221.87
2022-08-22T16:45:23.266Z,100223.95
2022-08-22T16:48:02.288Z,100221.23
2022-08-22T16:50:38.048Z,100222.08
2022-08-22T16:53:18.523Z,100224.88
2022-08-22T16:56:32.214Z,100225.00
2022-08-22T16:59:22.472Z,100226.46
2022-08-22T17:02:00.228Z,100231.13
2022-08-22T17:04:50.145Z,100235.96
2022-08-22T17:07:30.349Z,100248.59
2022-08-22T17:10:14.447Z,100261.11
2022-08-22T17:13:02.900Z,100275.01
2022-08-22T17:16:13.522Z,100284.66
2022-08-22T17:19:25.656Z,100284.54
2022-08-22T17:22:19.423Z,100287.19
2022-08-22T17:25:16.575Z,100293.83
2022-08-22T17:28:03.688Z,100292.06
2022-08-22T17:31:10.988Z,100289.84
2022-08-22T17:33:41.081Z,100289.21
2022-08-22T17:36:45.399Z,100291.48
2022-08-22T17:39:55.634Z,100291.52
2022-08-22T17:43:48.417Z,100292.86
2022-08-22T17:46:37.313Z,100290.27
2022-08-22T17:49:25.647Z,100287.38
2022-08-22T17:52:19.935Z,100291.46
2022-08-22T17:55:26.226Z,100292.84
2022-08-22T17:58:05.286Z,100290.75
2022-08-22T18:01:04.244Z,100277.59
2022-08-22T18:03:46.834Z,100289.20
2022-08-22T18:06:30.012Z,100291.04
2022-08-22T18:09:14.378Z,100289.44
2022-08-22T18:11:52.608Z,100299.31
2022-08-22T18:14:38.440Z,100302.27
2022-08-22T18:17:39.826Z,100312.85
2022-08-22T18:20:22.429Z,100324.63
2022-08-22T18:22:58.128Z,100329.59
2022-08-22T18:25:54.053Z,100333.89
2022-08-22T18:28:48.730Z,100327.21
2022-08-22T18:31:46.513Z,100332.25
2022-08-22T18:34:56.869Z,100341.33
2022-08-22T18:37:30.899Z,100352.05
2022-08-22T18:40:18.034Z,100370.34
2022-08-22T18:43:01.062Z,100359.45
2022-08-22T18:45:46.717Z,100347.28
2022-08-22T18:48:49.506Z,100339.30
2022-08-22T18:51:35.476Z,100340.30
2022-08-22T18:54:08.458Z,100360.86
2022-08-22T18:57:06.449Z,100396.32
2022-08-22T19:00:16.752Z,100412.97
2022-08-22T19:03:00.619Z,100418.09
2022-08-22T19:06:05.742Z,100414.67
2022-08-22T19:09:09.191Z,100412.50
2022-08-22T19:12:30.728Z,100414.79
2022-08-22T19:15:45.966Z,100423.15
2022-08-22T19:18:35.716Z,100421.56
2022-08-22T19:21:50.146Z,100421.02
2022-08-22T19:24:30.769Z,100410.63
2022-08-22T19:27:25.227Z,100414.93
2022-08-22T19:30:23.536Z,100412.32
2022-08-22T19:33:06.834Z,100406.33
2022-08-22T19:35:49.109Z,100401.75
2022-08-22T19:38:51.351Z,100405.58
2022-08-22T19:41:56.530Z,100399.43
2022-08-22T19:44:32.095Z,100400.56
2022-08-22T19:47:05.377Z,100402.03
2022-08-22T19:49:45.021Z,100414.88
2022-08-22T19:52:46.247Z,100431.38
2022-08-22T19:55:28.331Z,100475.78
2022-08-22T19:58:39.770Z,100506.30
2022-08-22T20:01:25.664Z,100490.23
2022-08-22T20:04:34.540Z,100456.13
2022-08-22T20:07:17.110Z,100430.64
2022-08-22T20:09:51.937Z,100424.98
2022-08-22T20:12:51.196Z,100406.21
2022-08-22T20:15:25.325Z,100378.41
2022-08-22T20:20:59.308Z,100380.77
2022-08-22T20:23:31.635Z,100408.34
2022-08-22T20:25:59.835Z,100427.10
2022-08-22T20:28:44.566Z,100434.58
2022-08-22T20:31:23.559Z,100440.34
2022-08-22T20:34:14.308Z,100439.42
2022-08-22T20:36:55.985Z,100427.71
2022-08-22T20:39:58.508Z,100422.20
2022-08-22T20:42:31.692Z,100413.66
2022-08-22T20:45:04.446Z,100415.48
2022-08-22T20:47:41.338Z,100399.17
2022-08-22T20:50:11.602Z,100389.63
2022-08-22T20:52:54.254Z,100365.19
2022-08-22T20:55:31.228Z,100362.48
2022-08-22T20:58:05.525Z,100378.15
2022-08-22T21:00:49.142Z,100395.23
2022-08-22T21:03:25.331Z,100413.20
2022-08-22T21:05:52.597Z,100441.52
2022-08-22T21:08:25.047Z,100456.15
2022-08-22T21:11:19.538Z,100455.11
2022-08-22T21:13:48.093Z,100440.52
2022-08-22T21:16:18.999Z,100425.73
2022-08-22T21:18:50.111Z,100409.09
2022-08-22T21:21:17.955Z,100401.08
2022-08-22T21:23:49.636Z,100395.27
2022-08-22T21:26:27.599Z,100392.33
2022-08-22T21:29:12.980Z,100390.59
2022-08-22T21:32:07.450Z,100398.55
2022-08-22T21:34:47.671Z,100390.80
2022-08-22T21:37:16.980Z,100387.13
2022-08-22T21:39:52.215Z,100385.64
2022-08-22T21:42:30.716Z,100384.36
2022-08-22T21:45:34.320Z,100387.36
2022-08-22T21:48:01.644Z,100390.85
2022-08-22T21:50:38.542Z,100393.48
2022-08-22T21:53:24.541Z,100398.19
2022-08-22T21:56:14.722Z,100403.59
2022-08-22T21:58:42.790Z,100400.73
2022-08-22T22:01:32.199Z,100401.41
2022-08-22T22:03:59.637Z,100394.05
2022-08-22T22:06:27.403Z,100390.33
2022-08-22T22:08:54.812Z,100387.06
2022-08-22T22:11:22.094Z,100384.59
2022-08-22T22:13:49.506Z,100383.34
2022-08-22T22:16:24.270Z,100386.96
2022-08-22T22:18:51.554Z,100390.44
2022-08-22T22:21:18.774Z,100392.58
2022-08-22T22:23:46.291Z,100399.85
2022-08-22T22:26:13.915Z,100404.76
2022-08-22T22:28:47.018Z,100408.13
2022-08-22T22:31:17.763Z,100409.91
2022-08-22T22:33:45.312Z,100403.57
2022-08-22T22:36:19.612Z,100406.00
2022-08-22T22:38:48.607Z,100407.52
2022-08-22T22:41:22.925Z,100409.55
2022-08-22T22:43:50.662Z,100414.99
2022-08-22T22:46:18.022Z,100415.46
2022-08-22T22:48:45.369Z,100415.81
2022-08-22T22:51:13.530Z,100429.68
2022-08-22T22:53:43.046Z,100426.70
2022-08-22T22:56:16.580Z,100428.41
2022-08-22T22:58:44.832Z,100432.02
2022-08-22T23:01:23.483Z,100433.00
2022-08-22T23:04:05.654Z,100428.30
2022-08-22T23:06:34.158Z,100431.55
2022-08-22T23:09:01.365Z,100432.88
2022-08-22T23:11:30.415Z,100433.02
2022-08-22T23:13:58.144Z,100432.08
2022-08-22T23:16:28.202Z,100435.97
2022-08-22T23:18:55.940Z,100444.67
2022-08-22T23:21:28.567Z,100441.47
2022-08-22T23:24:00.163Z,100433.69
2022-08-22T23:26:29.039Z,100431.92
2022-08-22T23:28:57.545Z,100434.42
2022-08-22T23:31:43.577Z,100441.99
2022-08-22T23:34:17.061Z,100445.70
2022-08-22T23:36:47.490Z,100443.60
2022-08-22T23:39:16.266Z,100441.01
2022-08-22T23:41:45.225Z,100441.52
2022-08-22T23:44:17.268Z,100444.70
2022-08-22T23:46:45.188Z,100440.13
2022-08-22T23:49:13.843Z,100442.41
2022-08-22T23:51:42.526Z,100440.33
2022-08-22T23:54:09.714Z,100438.05
2022-08-22T23:56:48.951Z,100440.80
2022-08-22T23:59:28.058Z,100441.90
